Time;durP1;ratioP1;P1;durP2;ratioP2;P2;SDS_P1;SDS_P2;PMS_P1;PMS_P2;Temp;Humidity;BMP_temperature;BMP_pressure;BME280_temperature;BME280_humidity;BME280_pressure;Samples;Min_cycle;Max_cycle;Signal;HPM_P1;HPM_P2
2022/01/30 00:00:50;;;;;;;1.20;1.10;;;;;;;;;;5029341;28;20612;-81
2022/01/30 00:03:17;;;;;;;2.08;1.90;;;;;;;;;;5018919;28;20256;-81
2022/01/30 00:05:44;;;;;;;0.90;0.90;;;;;;;;;;5028119;28;20335;-81
2022/01/30 00:08:11;;;;;;;1.60;1.50;;;;;;;;;;5028934;28;20227;-81
2022/01/30 00:10:41;;;;;;;1.23;1.13;;;;;;;;;;5028864;28;20684;-81
2022/01/30 00:13:11;;;;;;;1.75;1.27;;;;;;;;;;5029498;28;20705;-81
2022/01/30 00:15:42;;;;;;;1.15;1.05;;;;;;;;;;5028780;28;20262;-81
2022/01/30 00:18:25;;;;;;;1.20;1.10;;;;;;;;;;5029765;28;20678;-81
2022/01/30 00:21:05;;;;;;;1.42;1.33;;;;;;;;;;5028833;28;20193;-81
2022/01/30 00:23:33;;;;;;;1.38;1.20;;;;;;;;;;5029157;28;20550;-81
2022/01/30 00:26:04;;;;;;;1.02;1.02;;;;;;;;;;5028323;28;20270;-80
2022/01/30 00:28:33;;;;;;;1.55;1.10;;;;;;;;;;5029204;28;20212;-80
2022/01/30 00:31:00;;;;;;;2.00;1.10;;;;;;;;;;5027889;28;20200;-81
2022/01/30 00:33:27;;;;;;;1.30;1.20;;;;;;;;;;5029332;28;20212;-81
2022/01/30 00:35:55;;;;;;;1.50;1.40;;;;;;;;;;5027907;28;20879;-81
2022/01/30 00:38:23;;;;;;;1.35;1.17;;;;;;;;;;5028822;28;20251;-81
2022/01/30 00:40:57;;;;;;;3.25;1.95;;;;;;;;;;5026216;28;20208;-81
2022/01/30 00:43:25;;;;;;;1.08;1.02;;;;;;;;;;5028586;28;20285;-81
2022/01/30 00:45:52;;;;;;;1.38;1.27;;;;;;;;;;5027975;28;20845;-81
2022/01/30 00:48:19;;;;;;;1.88;1.60;;;5.40;99.90;;;;;;5028547;28;20682;-81
2022/01/30 00:50:46;;;;;;;1.13;1.13;;;5.40;99.90;;;;;;5027923;28;20613;-81
2022/01/30 00:53:14;;;;;;;1.58;1.25;;;5.40;99.90;;;;;;5028462;28;20272;-82
2022/01/30 00:55:41;;;;;;;1.35;1.25;;;5.50;99.90;;;;;;5027171;28;20207;-82
2022/01/30 00:58:08;;;;;;;1.83;1.33;;;5.40;99.90;;;;;;5022487;28;20312;-82
2022/01/30 01:00:37;;;;;;;1.40;1.30;;;5.40;99.90;;;;;;5028009;28;20635;-82
2022/01/30 01:03:04;;;;;;;1.63;1.52;;;5.40;99.90;;;;;;5027773;28;20685;-81
2022/01/30 01:05:32;;;;;;;1.20;1.15;;;5.40;99.90;;;;;;5027512;28;20527;-82
2022/01/30 01:08:07;;;;;;;1.20;1.20;;;5.50;99.90;;;;;;5028080;28;20199;-82
2022/01/30 01:10:41;;;;;;;1.00;1.00;;;5.50;99.90;;;;;;5027918;28;20204;-82
2022/01/30 01:13:22;;;;;;;1.70;1.40;;;5.50;99.90;;;;;;5028519;28;20266;-82
2022/01/30 01:24:21;;;;;;;1.50;1.40;;;5.60;99.90;;;;;;4984868;28;20674;-81
2022/01/30 01:26:50;;;;;;;1.42;1.33;;;5.50;99.90;;;;;;5024688;28;20593;-81
2022/01/30 01:29:18;;;;;;;1.60;1.50;;;5.60;99.90;;;;;;5027278;28;20185;-81
2022/01/30 01:31:47;;;;;;;1.15;1.05;;;5.60;99.90;;;;;;5028075;28;20291;-81
2022/01/30 01:36:55;;;;;;;1.30;1.20;;;5.60;99.90;;;;;;5027854;28;20247;-81
2022/01/30 01:39:22;;;;;;;2.47;1.70;;;5.50;99.90;;;;;;5028026;28;20278;-81
2022/01/30 01:41:49;;;;;;;1.98;1.60;;;5.60;99.90;;;;;;5027323;28;20232;-81
2022/01/30 01:44:17;;;;;;;2.08;1.40;;;5.60;99.90;;;;;;5027054;28;20197;-81
2022/01/30 01:46:46;;;;;;;3.22;1.52;;;5.50;99.90;;;;;;5011451;28;20196;-81
2022/01/30 01:49:20;;;;;;;1.02;1.02;;;5.60;99.90;;;;;;5027871;28;20231;-81
2022/01/30 01:52:00;;;;;;;1.70;1.60;;;5.60;99.90;;;;;;5013698;28;20220;-82
2022/01/30 01:54:27;;;;;;;1.90;1.80;;;5.50;99.90;;;;;;5027205;28;20215;-82
2022/01/30 01:56:54;;;;;;;1.85;1.70;;;5.60;99.90;;;;;;5027821;28;20220;-82
2022/01/30 01:59:21;;;;;;;1.60;1.50;;;5.40;99.90;;;;;;5027506;28;20193;-82
2022/01/30 02:01:51;;;;;;;2.80;1.75;;;5.60;99.90;;;;;;5021706;28;20245;-81
2022/01/30 02:04:20;;;;;;;1.90;1.80;;;5.70;99.90;;;;;;5014830;28;20279;-81
2022/01/30 02:06:47;;;;;;;2.08;1.88;;;5.50;99.90;;;;;;5027296;28;20192;-82
2022/01/30 02:09:15;;;;;;;2.25;1.90;;;5.60;99.90;;;;;;5031727;28;20196;-82
2022/01/30 02:11:46;;;;;;;1.25;1.15;;;5.60;99.90;;;;;;5031323;28;20231;-82
2022/01/30 02:25:28;;;;;;;1.50;1.40;;;5.70;99.90;;;;;;5030361;28;20196;-81
2022/01/30 02:27:58;;;;;;;1.63;1.52;;;5.60;99.90;;;;;;5031844;28;20536;-82
2022/01/30 02:30:31;;;;;;;1.60;1.20;;;5.60;99.90;;;;;;5031126;28;20250;-81
2022/01/30 02:32:59;;;;;;;2.67;1.85;;;5.60;99.90;;;;;;5016319;28;20204;-82
2022/01/30 02:35:27;;;;;;;1.10;1.00;;;5.60;99.90;;;;;;5028835;28;20243;-82
2022/01/30 02:37:57;;;;;;;1.70;1.60;;;5.70;99.90;;;;;;5030454;28;20231;-82
2022/01/30 02:40:24;;;;;;;1.60;1.50;;;5.50;99.90;;;;;;5024113;28;20224;-81
2022/01/30 02:42:53;;;;;;;2.78;1.55;;;;;;;;;;5025723;28;20221;-81
2022/01/30 02:45:24;;;;;;;2.30;1.90;;;;;;;;;;5030287;28;20192;-82
2022/01/30 02:47:58;;;;;;;1.90;1.80;;;5.60;99.90;;;;;;5024444;28;20266;-82
2022/01/30 02:50:39;;;;;;;2.17;1.90;;;5.50;99.90;;;;;;5030179;28;20250;-82
2022/01/30 02:53:09;;;;;;;1.95;1.77;;;5.40;99.90;;;;;;5030369;28;20208;-82
2022/01/30 02:55:36;;;;;;;1.70;1.60;;;5.80;99.90;;;;;;5030429;28;20201;-82
2022/01/30 02:58:04;;;;;;;3.85;1.45;;;8.30;99.90;;;;;;5030478;28;20639;-81
2022/01/30 03:00:31;;;;;;;1.90;1.80;;;5.70;99.90;;;;;;5030226;28;20197;-82
2022/01/30 03:02:59;;;;;;;3.95;2.70;;;;;;;;;;5018224;28;22007;-82
2022/01/30 03:05:26;;;;;;;2.15;1.85;;;5.50;99.90;;;;;;5029737;28;20184;-81
2022/01/30 03:07:53;;;;;;;1.85;1.63;;;;;;;;;;5030466;28;20216;-82
2022/01/30 03:10:21;;;;;;;1.30;1.20;;;5.30;99.90;;;;;;5030430;28;20207;-82
2022/01/30 03:12:49;;;;;;;2.00;1.90;;;;;;;;;;5029820;28;20205;-82
2022/01/30 03:15:15;;;;;;;2.20;1.52;;;5.50;99.90;;;;;;5029805;28;20231;-82
2022/01/30 03:17:43;;;;;;;2.50;1.73;;;;;;;;;;5029695;28;20189;-82
2022/01/30 03:20:11;;;;;;;3.10;2.15;;;;;;;;;;5029080;28;20224;-82
2022/01/30 03:22:40;;;;;;;2.17;1.65;;;;;;;;;;5029923;28;20240;-82
2022/01/30 03:25:07;;;;;;;1.50;1.40;;;;;;;;;;5029680;28;20598;-82
2022/01/30 03:27:36;;;;;;;1.23;1.13;;;6.20;99.90;;;;;;5030058;28;20270;-82
2022/01/30 03:30:06;;;;;;;2.13;1.52;;;;;;;;;;5026187;28;20228;-82
2022/01/30 03:32:33;;;;;;;3.97;1.10;;;;;;;;;;5030292;28;20201;-82
2022/01/30 03:35:00;;;;;;;1.00;1.00;;;5.20;99.90;;;;;;5009799;28;20276;-82
2022/01/30 03:37:27;;;;;;;1.77;1.30;;;;;;;;;;5010547;28;20209;-82
2022/01/30 03:39:54;;;;;;;1.05;0.95;;;;;;;;;;5029301;28;20275;-82
2022/01/30 03:42:21;;;;;;;1.25;1.20;;;5.40;99.90;;;;;;5024540;28;20232;-82
2022/01/30 03:44:49;;;;;;;2.00;1.42;;;5.60;99.90;;;;;;5029299;28;20189;-82
2022/01/30 03:47:17;;;;;;;1.15;1.02;;;5.80;99.90;;;;;;5028708;28;20247;-82
2022/01/30 03:49:44;;;;;;;1.35;1.25;;;6.00;99.90;;;;;;5029748;28;20266;-82
2022/01/30 03:52:10;;;;;;;1.60;1.50;;;6.10;99.90;;;;;;5029934;28;20263;-82
2022/01/30 03:54:37;;;;;;;1.20;1.15;;;5.70;99.90;;;;;;5028608;28;20201;-82
2022/01/30 03:57:06;;;;;;;1.50;1.38;;;5.70;99.90;;;;;;5029077;28;20224;-82
2022/01/30 03:59:32;;;;;;;1.40;1.20;;;5.70;99.90;;;;;;5029211;28;20208;-82
2022/01/30 04:02:01;;;;;;;1.30;1.20;;;5.70;99.90;;;;;;5028907;28;20341;-82
2022/01/30 04:04:28;;;;;;;1.50;1.30;;;;;;;;;;5028792;28;20204;-82
2022/01/30 04:06:58;;;;;;;1.10;0.93;;;5.70;99.90;;;;;;5028355;28;20210;-82
2022/01/30 04:09:25;;;;;;;1.33;1.23;;;;;;;;;;5028450;28;20218;-82
2022/01/30 04:11:52;;;;;;;2.83;1.77;;;5.70;99.90;;;;;;5017142;28;20197;-82
2022/01/30 04:14:20;;;;;;;3.05;2.00;;;5.70;99.90;;;;;;5022168;28;20200;-82
2022/01/30 04:16:47;;;;;;;1.80;1.42;;;;;;;;;;5028958;28;20255;-82
2022/01/30 04:19:16;;;;;;;3.15;1.75;;;;;;;;;;5029153;28;20204;-82
2022/01/30 04:21:43;;;;;;;2.40;1.75;;;;;;;;;;5029157;28;20196;-81
2022/01/30 04:24:10;;;;;;;4.78;2.33;;;;;;;;;;5027808;28;20639;-82
2022/01/30 04:26:37;;;;;;;3.47;2.30;;;;;;;;;;5028639;28;20297;-82
2022/01/30 04:29:05;;;;;;;2.85;2.58;;;5.90;99.90;;;;;;5028712;28;20205;-82
2022/01/30 04:31:32;;;;;;;5.65;2.80;;;5.90;99.90;;;;;;5028092;28;20296;-82
2022/01/30 04:34:00;;;;;;;4.43;2.92;;;5.90;99.90;;;;;;5028599;28;20228;-82
2022/01/30 04:36:34;;;;;;;6.85;3.83;;;5.90;99.90;;;;;;5028703;28;20232;-82
2022/01/30 04:39:11;;;;;;;3.83;3.03;;;5.90;99.90;;;;;;5024279;28;20270;-82
2022/01/30 04:41:59;;;;;;;8.73;3.03;;;5.90;99.90;;;;;;5021099;28;20192;-82
2022/01/30 04:52:54;;;;;;;4.68;3.75;;;5.90;99.90;;;;;;5027936;28;20266;-82
2022/01/30 04:56:05;;;;;;;4.68;3.80;;;6.00;99.90;;;;;;5027913;28;20208;-82
2022/01/30 04:58:26;;;;;;;5.00;3.97;;;5.90;99.90;;;;;;5022674;28;20208;-82
2022/01/30 05:01:01;;;;;;;14.80;4.50;;;5.90;99.90;;;;;;5027766;28;20211;-82
2022/01/30 05:06:18;;;;;;;9.10;4.00;;;5.90;99.90;;;;;;5025994;28;20224;-82
2022/01/30 05:08:47;;;;;;;7.93;4.10;;;5.80;99.90;;;;;;5027820;28;20201;-82
2022/01/30 05:11:14;;;;;;;6.90;3.92;;;5.80;99.90;;;;;;5028500;28;20197;-82
2022/01/30 05:13:46;;;;;;;9.00;4.30;;;5.80;99.90;;;;;;5028175;28;20266;-82
2022/01/30 05:16:13;;;;;;;4.88;3.80;;;5.60;99.90;;;;;;5026147;28;20199;-82
2022/01/30 05:18:41;;;;;;;6.57;3.33;;;5.60;99.90;;;;;;5028577;28;20208;-82
2022/01/30 05:21:08;;;;;;;5.32;2.75;;;5.70;99.90;;;;;;5028398;28;20250;-82
2022/01/30 05:23:35;;;;;;;5.53;3.40;;;5.60;99.90;;;;;;5027951;28;20246;-82
2022/01/30 05:26:08;;;;;;;5.47;4.18;;;5.60;99.90;;;;;;5027664;28;20213;-82
2022/01/30 05:28:35;;;;;;;10.57;4.93;;;;;;;;;;5027985;28;20196;-82
2022/01/30 05:31:03;;;;;;;11.75;5.25;;;;;;;;;;5027141;28;20291;-82
2022/01/30 05:33:30;;;;;;;8.48;3.50;;;;;;;;;;5023087;28;20236;-82
2022/01/30 05:35:58;;;;;;;4.03;3.20;;;;;;;;;;5027492;28;20212;-82
2022/01/30 05:38:25;;;;;;;8.45;3.75;;;;;;;;;;5028068;28;20197;-82
2022/01/30 05:40:52;;;;;;;9.55;3.97;;;;;;;;;;5027834;28;20246;-82
2022/01/30 05:43:23;;;;;;;5.65;3.88;;;;;;;;;;5030184;28;20212;-82
2022/01/30 05:45:55;;;;;;;3.35;2.90;;;;;;;;;;5031426;28;20205;-82
2022/01/30 05:48:23;;;;;;;3.17;2.88;;;;;;;;;;5032013;28;20197;-82
2022/01/30 05:50:51;;;;;;;5.50;3.20;;;5.60;99.90;;;;;;5031727;28;20646;-82
2022/01/30 05:53:18;;;;;;;12.32;4.07;;;5.40;99.90;;;;;;5031898;28;20258;-82
2022/01/30 05:55:45;;;;;;;4.32;3.65;;;5.40;99.90;;;;;;5030769;28;20192;-82
2022/01/30 05:58:12;;;;;;;8.52;3.45;;;;;;;;;;5031392;28;20252;-82
2022/01/30 06:00:41;;;;;;;11.40;3.47;;;5.40;99.90;;;;;;5030961;28;20205;-82
2022/01/30 06:03:08;;;;;;;7.18;3.70;;;5.40;99.90;;;;;;5016074;28;20237;-82
2022/01/30 06:05:35;;;;;;;6.43;4.05;;;;;;;;;;5028624;28;20286;-82
2022/01/30 06:08:11;;;;;;;3.22;2.58;;;;;;;;;;5031540;28;20247;-82
2022/01/30 06:10:38;;;;;;;7.80;2.83;;;;;;;;;;5030723;28;20751;-82
2022/01/30 06:13:05;;;;;;;4.00;2.55;;;;;;;;;;5031543;28;20206;-82
2022/01/30 06:15:32;;;;;;;8.63;3.47;;;;;;;;;;5030515;28;20201;-82
2022/01/30 06:18:01;;;;;;;7.82;3.92;;;;;;;;;;5031306;28;20635;-82
2022/01/30 06:20:28;;;;;;;6.90;4.15;;;;;;;;;;5031465;28;20203;-82
2022/01/30 06:22:55;;;;;;;3.60;2.33;;;;;;;;;;5030342;28;20225;-82
2022/01/30 06:25:22;;;;;;;6.35;3.95;;;5.40;99.90;;;;;;5030344;28;20232;-82
2022/01/30 06:27:48;;;;;;;14.77;3.55;;;5.50;99.90;;;;;;5025668;28;20694;-82
2022/01/30 06:30:21;;;;;;;9.95;3.25;;;5.40;99.90;;;;;;5031329;28;20283;-82
2022/01/30 06:32:48;;;;;;;8.73;2.65;;;6.80;99.90;;;;;;5030292;28;20567;-82
2022/01/30 06:35:17;;;;;;;6.00;2.88;;;5.30;99.90;;;;;;5030045;28;20217;-82
2022/01/30 06:37:44;;;;;;;2.70;2.50;;;5.20;99.90;;;;;;5029439;28;20205;-83
2022/01/30 06:40:12;;;;;;;6.25;2.85;;;5.20;99.90;;;;;;5030792;28;20845;-82
2022/01/30 06:42:39;;;;;;;4.82;3.20;;;5.10;99.90;;;;;;5031016;28;20204;-82
2022/01/30 06:45:07;;;;;;;3.30;2.95;;;5.00;99.90;;;;;;5029867;28;20197;-82
2022/01/30 06:47:41;;;;;;;5.90;3.10;;;5.00;99.90;;;;;;5019796;28;20201;-82
2022/01/30 06:50:09;;;;;;;3.60;3.15;;;4.70;99.90;;;;;;5030301;28;20204;-82
2022/01/30 06:52:37;;;;;;;6.70;2.67;;;4.80;99.90;;;;;;5030147;28;20233;-82
2022/01/30 06:55:05;;;;;;;11.35;4.03;;;4.80;99.90;;;;;;5030216;28;20282;-82
2022/01/30 06:57:32;;;;;;;9.90;3.15;;;4.70;99.90;;;;;;5030720;28;20200;-83
2022/01/30 07:00:00;;;;;;;6.78;3.30;;;4.70;99.90;;;;;;5030635;28;20651;-82
2022/01/30 07:02:27;;;;;;;9.63;3.30;;;4.60;99.90;;;;;;5019986;28;20944;-82
2022/01/30 07:04:54;;;;;;;7.30;3.63;;;4.60;99.90;;;;;;5021496;28;20724;-82
2022/01/30 07:07:20;;;;;;;9.93;3.25;;;4.60;99.90;;;;;;5029383;28;20588;-82
2022/01/30 07:09:49;;;;;;;4.75;3.03;;;4.50;99.90;;;;;;5030602;28;20201;-82
2022/01/30 07:12:17;;;;;;;6.38;3.88;;;4.50;99.90;;;;;;5030430;28;20197;-82
2022/01/30 07:14:44;;;;;;;7.03;3.45;;;4.50;99.90;;;;;;5029859;28;20576;-82
2022/01/30 07:17:11;;;;;;;5.70;2.88;;;4.30;99.90;;;;;;5024465;28;20319;-82
2022/01/30 07:19:38;;;;;;;10.20;4.22;;;;;;;;;;5030340;28;20270;-82
2022/01/30 07:22:05;;;;;;;8.75;3.65;;;4.40;99.90;;;;;;5030229;28;20232;-82
2022/01/30 07:24:32;;;;;;;6.68;3.65;;;4.40;99.90;;;;;;5028984;28;20252;-83
2022/01/30 07:27:00;;;;;;;8.98;3.88;;;4.40;99.90;;;;;;5025241;28;20228;-84
2022/01/30 07:29:27;;;;;;;6.82;3.90;;;5.30;99.90;;;;;;5029470;28;20414;-84
2022/01/30 07:31:54;;;;;;;5.22;3.72;;;4.40;99.90;;;;;;5029437;28;20280;-84
2022/01/30 07:34:22;;;;;;;7.97;2.78;;;4.40;99.90;;;;;;5029673;28;20239;-84
2022/01/30 07:36:51;;;;;;;8.40;3.72;;;4.40;99.90;;;;;;5029020;28;20246;-84
2022/01/30 07:39:18;;;;;;;17.75;4.15;;;4.40;99.90;;;;;;5030336;28;20263;-84
2022/01/30 07:41:46;;;;;;;9.05;4.10;;;4.50;99.90;;;;;;5024775;28;20207;-84
2022/01/30 07:44:14;;;;;;;6.25;3.63;;;4.60;99.90;;;;;;5028912;28;20274;-84
2022/01/30 07:46:41;;;;;;;5.38;3.97;;;4.50;99.90;;;;;;5029708;28;20225;-84
2022/01/30 07:49:08;;;;;;;9.90;3.60;;;4.50;99.90;;;;;;5028321;28;20196;-84
2022/01/30 07:51:34;;;;;;;3.53;3.22;;;4.60;99.90;;;;;;5028744;28;20279;-84
2022/01/30 07:54:01;;;;;;;9.20;3.85;;;4.60;99.90;;;;;;5028248;28;20220;-84
2022/01/30 07:56:28;;;;;;;11.68;4.80;;;4.70;99.90;;;;;;5028705;28;20215;-84
2022/01/30 07:58:55;;;;;;;4.68;3.88;;;4.70;99.90;;;;;;5029220;28;20235;-83
2022/01/30 08:01:23;;;;;;;8.93;4.38;;;4.70;99.90;;;;;;5024545;28;20303;-84
2022/01/30 08:03:50;;;;;;;9.38;4.10;;;4.60;99.90;;;;;;5027183;28;20259;-84
2022/01/30 08:06:17;;;;;;;8.15;4.78;;;4.80;99.90;;;;;;5022720;28;20764;-84
2022/01/30 08:08:44;;;;;;;8.82;4.30;;;4.90;99.90;;;;;;5027895;28;20315;-83
2022/01/30 08:11:12;;;;;;;6.38;3.65;;;4.80;99.90;;;;;;5026732;28;20201;-84
2022/01/30 08:13:38;;;;;;;11.02;4.78;;;4.80;99.90;;;;;;5027828;28;20193;-84
2022/01/30 08:16:06;;;;;;;18.65;4.25;;;4.80;99.90;;;;;;5027238;28;20235;-83
2022/01/30 08:18:37;;;;;;;10.10;4.60;;;4.80;99.90;;;;;;5027837;28;20200;-84
2022/01/30 08:21:04;;;;;;;5.32;3.58;;;4.90;99.90;;;;;;5028485;28;20688;-83
2022/01/30 08:23:33;;;;;;;6.55;3.63;;;4.90;99.90;;;;;;5023585;28;20228;-84
2022/01/30 08:25:59;;;;;;;6.03;3.80;;;4.90;99.90;;;;;;5027433;28;20210;-84
2022/01/30 08:28:26;;;;;;;6.45;3.50;;;4.90;99.90;;;;;;5028968;28;21004;-84
2022/01/30 08:30:53;;;;;;;3.85;3.42;;;5.10;99.90;;;;;;5028594;28;20279;-83
2022/01/30 08:33:20;;;;;;;8.13;3.28;;;5.20;99.90;;;;;;5028954;28;20236;-84
2022/01/30 08:35:49;;;;;;;4.63;3.30;;;5.30;99.90;;;;;;5027900;28;20200;-83
2022/01/30 08:38:18;;;;;;;8.70;5.03;;;5.30;99.90;;;;;;5028673;28;20237;-84
2022/01/30 08:40:45;;;;;;;7.72;3.20;;;5.20;99.90;;;;;;5028375;28;20188;-83
2022/01/30 08:43:12;;;;;;;8.75;3.40;;;5.10;99.90;;;;;;5029083;28;20239;-83
2022/01/30 08:45:39;;;;;;;6.65;3.15;;;5.10;99.90;;;;;;5027985;28;20252;-83
2022/01/30 08:48:06;;;;;;;4.35;2.88;;;4.90;99.90;;;;;;5028213;28;20282;-84
2022/01/30 08:50:33;;;;;;;12.52;4.55;;;5.00;99.40;;;;;;5028852;28;20266;-84
2022/01/30 08:53:02;;;;;;;4.47;3.40;;;4.90;99.30;;;;;;5027029;28;20291;-83
2022/01/30 08:55:29;;;;;;;5.15;3.03;;;4.90;99.50;;;;;;5028230;28;20208;-84
2022/01/30 08:57:57;;;;;;;8.93;3.42;;;4.90;99.50;;;;;;5027464;28;20247;-83
2022/01/30 09:00:24;;;;;;;7.00;3.30;;;4.90;99.30;;;;;;5027765;28;20258;-83
2022/01/30 09:02:51;;;;;;;12.07;3.40;;;5.00;99.70;;;;;;5026788;28;20283;-83
2022/01/30 09:05:18;;;;;;;5.78;3.13;;;5.00;99.90;;;;;;5027103;28;20225;-84
2022/01/30 09:07:45;;;;;;;6.03;3.42;;;5.00;99.90;;;;;;5028360;28;20644;-83
2022/01/30 09:10:13;;;;;;;5.28;3.10;;;5.10;99.90;;;;;;5026968;28;20199;-83
2022/01/30 09:12:40;;;;;;;6.68;3.15;;;5.30;99.50;;;;;;5028546;28;20642;-83
2022/01/30 09:15:10;;;;;;;6.88;3.85;;;5.50;99.50;;;;;;5027900;28;20259;-83
2022/01/30 09:17:39;;;;;;;5.43;4.05;;;5.60;99.50;;;;;;5028532;28;20196;-83
2022/01/30 09:20:07;;;;;;;11.25;4.25;;;5.40;99.90;;;;;;5025598;28;20224;-83
2022/01/30 09:22:34;;;;;;;6.15;3.92;;;5.50;98.50;;;;;;5027988;28;20710;-83
2022/01/30 09:25:01;;;;;;;6.68;2.83;;;5.50;98.70;;;;;;5023885;28;20279;-83
2022/01/30 09:27:30;;;;;;;7.53;4.07;;;5.40;97.80;;;;;;5027196;28;20199;-83
2022/01/30 09:29:57;;;;;;;9.70;3.67;;;5.40;98.30;;;;;;5028204;28;20204;-83
2022/01/30 09:32:23;;;;;;;7.45;3.45;;;5.50;98.50;;;;;;5027333;28;20281;-83
2022/01/30 09:34:51;;;;;;;4.65;3.75;;;5.70;99.90;;;;;;5026858;28;20295;-83
2022/01/30 09:37:20;;;;;;;7.47;3.60;;;5.80;99.00;;;;;;5028141;28;20200;-83
2022/01/30 09:39:47;;;;;;;9.05;4.15;;;6.30;99.90;;;;;;5027956;28;20197;-83
2022/01/30 09:42:16;;;;;;;6.28;3.42;;;6.10;99.90;;;;;;5027654;28;20216;-83
2022/01/30 09:44:45;;;;;;;6.32;3.40;;;6.10;97.60;;;;;;5027460;28;20216;-83
2022/01/30 09:47:13;;;;;;;6.28;3.65;;;6.30;99.90;;;;;;5027501;28;20220;-83
2022/01/30 09:49:44;;;;;;;13.27;3.35;;;6.40;94.70;;;;;;5027907;28;20291;-83
2022/01/30 09:52:11;;;;;;;5.82;2.60;;;6.40;95.00;;;;;;5026769;28;20308;-83
2022/01/30 09:54:38;;;;;;;6.47;2.70;;;6.30;94.40;;;;;;5026893;28;20300;-83
2022/01/30 09:57:05;;;;;;;3.72;3.15;;;6.50;99.10;;;;;;5027013;28;20205;-83
2022/01/30 09:59:32;;;;;;;7.15;2.65;;;6.30;95.00;;;;;;5027805;28;20201;-83
2022/01/30 10:02:04;;;;;;;6.50;2.55;;;6.40;93.70;;;;;;5021236;28;20325;-83
2022/01/30 10:04:31;;;;;;;7.38;2.38;;;6.30;93.00;;;;;;5008015;28;20936;-83
2022/01/30 10:07:02;;;;;;;9.98;3.45;;;6.30;93.50;;;;;;5008302;28;20291;-83
2022/01/30 10:09:33;;;;;;;5.90;2.85;;;6.30;93.50;;;;;;5008643;28;20701;-83
2022/01/30 10:12:15;;;;;;;10.43;3.45;;;6.50;92.90;;;;;;5007559;28;20213;-83
2022/01/30 10:15:00;;;;;;;5.07;2.55;;;6.50;93.20;;;;;;5007834;28;20213;-83
2022/01/30 10:17:31;;;;;;;4.60;2.95;;;6.50;92.30;;;;;;5008447;28;20209;-83
2022/01/30 10:20:09;;;;;;;5.50;2.63;;;6.40;92.40;;;;;;5008088;28;20683;-82
2022/01/30 10:22:38;;;;;;;5.40;2.38;;;6.50;99.00;;;;;;5008339;28;20642;-83
2022/01/30 10:25:06;;;;;;;1.98;1.77;;;6.40;92.60;;;;;;5007565;28;20534;-83
2022/01/30 10:27:33;;;;;;;5.22;2.60;;;;;;;;;;5008363;28;20296;-83
2022/01/30 10:30:03;;;;;;;7.20;3.17;;;6.30;91.40;;;;;;5011780;28;20209;-83
2022/01/30 10:32:31;;;;;;;8.73;2.80;;;6.70;98.60;;;;;;5011580;28;20638;-83
2022/01/30 10:35:00;;;;;;;5.63;2.42;;;5.90;91.90;;;;;;5010416;28;20256;-83
2022/01/30 10:37:28;;;;;;;3.53;2.58;;;6.00;99.00;;;;;;5011500;28;20237;-83
2022/01/30 10:40:06;;;;;;;9.30;2.75;;;6.00;92.20;;;;;;5014500;28;20205;-83
2022/01/30 10:42:39;;;;;;;8.93;2.75;;;6.00;99.90;;;;;;5031126;28;20287;-84
2022/01/30 10:45:12;;;;;;;6.97;2.15;;;6.10;92.20;;;;;;5030577;28;20270;-83
2022/01/30 10:47:41;;;;;;;6.70;2.63;;;6.10;99.90;;;;;;5030974;28;20291;-83
2022/01/30 10:50:13;;;;;;;2.92;2.03;;;6.00;99.70;;;;;;5031105;28;20216;-83
2022/01/30 10:52:51;;;;;;;3.70;2.70;;;5.90;92.00;;;;;;5030820;28;20280;-83
2022/01/30 10:55:31;;;;;;;5.70;2.80;;;5.80;96.60;;;;;;5030249;28;20200;-83
2022/01/30 10:58:00;;;;;;;8.23;3.15;;;5.80;91.90;;;;;;5030371;28;20295;-84
2022/01/30 11:00:44;;;;;;;4.90;4.35;;;5.80;92.10;;;;;;5031249;28;20228;-83
2022/01/30 11:03:37;;;;;;;7.35;2.90;;;5.70;92.50;;;;;;5030775;28;20197;-83
2022/01/30 11:06:07;;;;;;;11.82;4.60;;;5.80;93.10;;;;;;5030000;28;20306;-83
2022/01/30 11:08:35;;;;;;;12.45;5.15;;;;;;;;;;5030379;28;20209;-83
2022/01/30 11:11:13;;;;;;;5.05;3.08;;;6.00;93.60;;;;;;5030024;28;20208;-84
2022/01/30 11:14:00;;;;;;;6.43;3.00;;;6.20;93.90;;;;;;5030596;28;20209;-83
2022/01/30 11:19:15;;;;;;;11.50;3.65;;;6.40;93.50;;;;;;5030514;28;20211;-84
2022/01/30 11:21:43;;;;;;;5.13;3.38;;;6.50;99.70;;;;;;5030393;28;20205;-84
2022/01/30 11:24:13;;;;;;;4.53;2.60;;;6.40;92.60;;;;;;5029607;28;20255;-84
2022/01/30 11:26:40;;;;;;;4.53;3.10;;;6.60;92.70;;;;;;5030053;28;20251;-84
2022/01/30 11:29:09;;;;;;;3.30;2.63;;;6.40;99.90;;;;;;5030074;28;20610;-84
2022/01/30 11:31:37;;;;;;;9.73;2.83;;;6.30;95.40;;;;;;5030405;28;20236;-83
2022/01/30 11:34:04;;;;;;;8.38;2.90;;;6.40;91.80;;;;;;5029775;28;20245;-83
2022/01/30 11:36:33;;;;;;;5.78;2.95;;;6.30;91.30;;;;;;5030134;28;20231;-84
2022/01/30 11:39:01;;;;;;;16.35;4.10;;;6.00;90.70;;;;;;5029708;28;20608;-83
2022/01/30 11:41:30;;;;;;;4.63;2.22;;;6.00;91.10;;;;;;5029324;28;20616;-83
2022/01/30 11:44:24;;;;;;;5.55;3.10;;;6.00;91.10;;;;;;5028988;28;20270;-84
2022/01/30 11:47:24;;;;;;;10.75;3.20;;;6.00;98.00;;;;;;5029997;28;20201;-83
2022/01/30 11:50:08;;;;;;;12.90;3.15;;;5.80;91.30;;;;;;5030035;28;20291;-84
2022/01/30 11:53:01;;;;;;;7.35;2.42;;;5.80;91.20;;;;;;5029791;28;20235;-84
2022/01/30 11:55:56;;;;;;;6.45;3.50;;;5.80;94.50;;;;;;5029298;28;20232;-84
2022/01/30 11:58:57;;;;;;;7.70;3.40;;;6.00;91.20;;;;;;5029272;28;20250;-84
2022/01/30 12:01:40;;;;;;;6.35;2.65;;;;;;;;;;5028271;28;20261;-84
2022/01/30 12:04:11;;;;;;;8.50;2.90;;;;;;;;;;5009367;28;20666;-85
2022/01/30 12:06:41;;;;;;;6.70;2.35;;;6.10;91.00;;;;;;5009359;28;20291;-85
2022/01/30 12:09:27;;;;;;;6.03;2.22;;;6.10;90.90;;;;;;5009631;28;20213;-84
2022/01/30 12:12:05;;;;;;;7.45;2.85;;;6.20;90.80;;;;;;5008973;28;20197;-83
2022/01/30 12:14:57;;;;;;;5.63;2.15;;;;;;;;;;5009069;28;20205;-83
2022/01/30 12:17:51;;;;;;;8.50;3.05;;;6.30;94.70;;;;;;5009705;28;20206;-84
2022/01/30 12:20:19;;;;;;;3.95;2.80;;;;;;;;;;5009925;28;20201;-84
2022/01/30 12:22:46;;;;;;;4.57;2.38;;;;;;;;;;5009305;28;20554;-83
2022/01/30 12:25:38;;;;;;;5.20;3.20;;;6.40;96.50;;;;;;5008620;28;20321;-83
2022/01/30 12:28:14;;;;;;;6.55;2.97;;;6.40;89.80;;;;;;5009530;28;20213;-84
2022/01/30 12:30:53;;;;;;;5.97;3.30;;;6.20;89.80;;;;;;5009774;28;20649;-84
2022/01/30 12:34:00;;;;;;;7.75;2.65;;;6.30;89.90;;;;;;5009564;28;20216;-84
2022/01/30 12:36:27;;;;;;;4.50;2.67;;;6.40;89.60;;;;;;5009384;28;20204;-84
2022/01/30 12:39:00;;;;;;;7.60;2.95;;;6.30;90.10;;;;;;5009162;28;20233;-84
2022/01/30 12:41:30;;;;;;;11.02;3.10;;;6.50;90.00;;;;;;5024660;28;20258;-84
2022/01/30 12:44:00;;;;;;;10.43;3.72;;;6.50;89.70;;;;;;5028172;28;20193;-84
2022/01/30 12:46:28;;;;;;;5.93;2.80;;;6.50;90.10;;;;;;5028153;28;20259;-84
2022/01/30 12:49:10;;;;;;;10.43;3.28;;;6.60;94.40;;;;;;5028785;28;20204;-84
2022/01/30 12:51:39;;;;;;;7.72;3.40;;;6.20;94.90;;;;;;5028750;28;20267;-84
2022/01/30 12:54:07;;;;;;;6.25;3.40;;;6.30;90.90;;;;;;5028075;28;20204;-84
2022/01/30 12:56:36;;;;;;;10.95;3.20;;;6.10;95.20;;;;;;5028742;28;20217;-84
2022/01/30 12:59:11;;;;;;;7.20;2.88;;;6.10;96.20;;;;;;5028571;28;20477;-84
2022/01/30 13:01:42;;;;;;;7.78;3.13;;;6.10;91.60;;;;;;5028805;28;20207;-84
2022/01/30 13:04:12;;;;;;;8.43;4.50;;;6.20;91.80;;;;;;5027934;28;20650;-84
2022/01/30 13:06:41;;;;;;;9.88;3.40;;;6.40;91.50;;;;;;5028569;28;20307;-84
2022/01/30 13:09:09;;;;;;;5.35;3.33;;;6.40;91.00;;;;;;5027878;28;20290;-84
2022/01/30 13:11:38;;;;;;;8.63;3.47;;;6.50;96.20;;;;;;5027642;28;20209;-84
2022/01/30 13:14:07;;;;;;;6.30;3.53;;;6.60;91.30;;;;;;5027823;28;20204;-85
2022/01/30 13:16:37;;;;;;;3.95;2.78;;;6.60;91.40;;;;;;5028435;28;20196;-84
2022/01/30 13:19:08;;;;;;;5.13;2.75;;;6.50;90.30;;;;;;5028585;28;20232;-84
2022/01/30 13:21:37;;;;;;;6.28;3.20;;;6.70;90.40;;;;;;5028336;28;20209;-84
2022/01/30 13:24:06;;;;;;;7.15;3.20;;;6.60;90.50;;;;;;5027632;28;20304;-85
2022/01/30 13:26:42;;;;;;;9.32;2.47;;;6.80;90.80;;;;;;5027716;28;20784;-84
2022/01/30 13:29:19;;;;;;;7.63;3.42;;;6.80;89.70;;;;;;5028492;28;20251;-84
2022/01/30 13:31:48;;;;;;;4.50;2.58;;;6.60;89.90;;;;;;5028089;28;20207;-84
2022/01/30 13:34:26;;;;;;;3.20;2.50;;;6.40;89.50;;;;;;5027316;28;20624;-85
2022/01/30 13:37:00;;;;;;;2.38;1.92;;;6.20;89.50;;;;;;5028827;28;20211;-84
2022/01/30 13:39:33;;;;;;;4.72;3.10;;;6.10;88.90;;;;;;5028623;28;20300;-84
2022/01/30 13:48:02;;;;;;;5.05;3.60;;;6.60;88.60;;;;;;5008414;28;20729;-84
2022/01/30 13:50:33;;;;;;;6.82;2.67;;;6.60;88.80;;;;;;5008584;28;20205;-84
2022/01/30 13:53:01;;;;;;;7.57;3.75;;;6.60;88.60;;;;;;5008498;28;20228;-84
2022/01/30 13:55:29;;;;;;;6.28;2.70;;;6.50;86.80;;;;;;5007865;28;20539;-84
2022/01/30 13:57:59;;;;;;;4.85;2.38;;;6.20;90.30;;;;;;5008629;28;20212;-84
2022/01/30 14:00:30;;;;;;;8.10;2.30;;;6.40;85.70;;;;;;5008363;28;20194;-85
2022/01/30 14:03:00;;;;;;;4.05;2.47;;;6.20;86.00;;;;;;5023249;28;20552;-84
2022/01/30 14:05:32;;;;;;;2.42;2.22;;;5.90;89.20;;;;;;5030618;28;20557;-84
2022/01/30 14:08:00;;;;;;;4.10;2.50;;;6.10;85.50;;;;;;5031693;28;20728;-85
2022/01/30 14:10:33;;;;;;;4.47;2.25;;;6.10;85.40;;;;;;5030854;28;20200;-84
2022/01/30 14:13:03;;;;;;;6.07;2.10;;;6.20;85.40;;;;;;5031976;28;20266;-84